Time;durP1;ratioP1;P1;durP2;ratioP2;P2;SDS_P1;SDS_P2;PMS_P1;PMS_P2;Temp;Humidity;BMP_temperature;BMP_pressure;BME280_temperature;BME280_humidity;BME280_pressure;Samples;Min_cycle;Max_cycle;Signal;HPM_P1;HPM_P2
2023/09/02 00:00:19;;;;;;;5.50;3.60;;;;;;;15.37;100.00;100652.84;105588;1260;75462;-58
2023/09/02 00:03:06;;;;;;;4.30;3.80;;;;;;;15.35;100.00;100654.33;105586;1255;83186;-58
2023/09/02 00:05:34;;;;;;;6.40;3.90;;;;;;;15.32;100.00;100654.12;105578;1264;73568;-59
2023/09/02 00:08:01;;;;;;;6.00;4.20;;;;;;;15.30;100.00;100654.06;105561;1257;69204;-58
2023/09/02 00:10:28;;;;;;;7.10;4.00;;;;;;;15.30;100.00;100657.25;105603;1257;69256;-58
2023/09/02 00:12:55;;;;;;;6.60;4.40;;;;;;;15.30;100.00;100654.10;105568;1257;75785;-58
2023/09/02 00:15:22;;;;;;;4.60;4.20;;;;;;;15.29;100.00;100651.67;105597;1255;82284;-58
2023/09/02 00:17:49;;;;;;;6.90;4.20;;;;;;;15.28;100.00;100649.63;105554;1256;73601;-58
2023/09/02 00:20:17;;;;;;;6.80;4.00;;;;;;;15.26;100.00;100652.35;105561;1256;69201;-58
2023/09/02 00:22:44;;;;;;;4.20;3.70;;;;;;;15.24;100.00;100657.91;105567;1257;69170;-58
2023/09/02 00:25:11;;;;;;;4.90;4.30;;;;;;;15.21;100.00;100663.20;105499;1256;75425;-58
2023/09/02 00:27:38;;;;;;;6.40;4.60;;;;;;;15.21;100.00;100668.84;105617;1258;83365;-58
2023/09/02 00:30:06;;;;;;;4.70;4.20;;;;;;;15.21;100.00;100669.15;105591;1254;73470;-58
2023/09/02 00:32:33;;;;;;;5.10;4.20;;;;;;;15.23;100.00;100670.30;105598;1254;69201;-58
2023/09/02 00:35:00;;;;;;;5.40;4.50;;;;;;;15.24;100.00;100669.20;105538;1254;69172;-58
2023/09/02 00:37:28;;;;;;;6.20;4.80;;;;;;;15.24;100.00;100668.64;105420;1257;75553;-58
2023/09/02 00:39:55;;;;;;;6.70;4.50;;;;;;;15.26;100.00;100666.08;105568;1257;83547;-58
2023/09/02 00:42:23;;;;;;;5.50;4.80;;;;;;;15.27;100.00;100665.49;105575;1253;72546;-58
2023/09/02 00:44:50;;;;;;;5.60;4.30;;;;;;;15.28;100.00;100667.06;105502;1257;69088;-58
2023/09/02 00:47:18;;;;;;;8.70;5.10;;;;;;;15.28;100.00;100660.88;105438;1260;69275;-58
2023/09/02 00:49:45;;;;;;;4.90;4.40;;;;;;;15.29;100.00;100657.29;105552;1257;73593;-58
2023/09/02 00:52:12;;;;;;;6.30;4.30;;;;;;;15.31;100.00;100660.70;105569;1257;82822;-58
2023/09/02 00:54:39;;;;;;;4.90;3.80;;;;;;;15.31;100.00;100665.66;105493;1257;72529;-58
2023/09/02 00:57:06;;;;;;;6.30;4.80;;;;;;;15.32;100.00;100666.13;105561;1257;69185;-58
2023/09/02 00:59:34;;;;;;;5.50;4.40;;;;;;;15.32;100.00;100667.71;105601;1257;69109;-59
2023/09/02 01:02:03;;;;;;;4.90;4.00;;;;;;;15.33;100.00;100672.42;105468;1255;75795;-58
2023/09/02 01:04:30;;;;;;;4.70;4.00;;;;;;;15.32;100.00;100671.38;105620;1257;82192;-58
2023/09/02 01:06:58;;;;;;;5.30;3.80;;;;;;;15.34;100.00;100669.37;105545;1254;73969;-58
2023/09/02 01:09:25;;;;;;;6.50;4.50;;;;;;;15.34;100.00;100668.30;105565;1253;69090;-59
2023/09/02 01:11:52;;;;;;;4.40;4.00;;;;;;;15.35;100.00;100671.78;105618;1255;69173;-58
2023/09/02 01:14:21;;;;;;;5.50;4.30;;;;;;;15.35;100.00;100669.46;105670;1254;75869;-58
2023/09/02 01:16:48;;;;;;;5.80;4.50;;;;;;;15.36;100.00;100671.73;105632;1256;83467;-58
2023/09/02 01:19:20;;;;;;;5.20;4.30;;;;;;;15.37;100.00;100667.96;105563;1254;73679;-58
2023/09/02 01:22:05;;;;;;;4.60;4.10;;;;;;;15.39;100.00;100666.44;105566;1252;69172;-58
2023/09/02 01:25:07;;;;;;;5.00;4.20;;;;;;;15.39;100.00;100663.06;105583;1254;69208;-59
2023/09/02 01:27:37;;;;;;;5.70;4.30;;;;;;;15.41;100.00;100663.20;105319;1253;75510;-58
2023/09/02 01:30:19;;;;;;;7.10;3.90;;;;;;;15.42;100.00;100664.16;105522;1254;83545;-59
2023/09/02 01:32:51;;;;;;;6.00;4.70;;;;;;;15.44;100.00;100667.25;105584;1257;73968;-59
2023/09/02 01:35:24;;;;;;;6.10;4.20;;;;;;;15.47;100.00;100670.05;105629;1252;69278;-59
2023/09/02 01:37:55;;;;;;;4.60;4.20;;;;;;;15.50;100.00;100669.42;105626;1254;69153;-59
2023/09/02 01:40:25;;;;;;;;;;;;;;;15.53;100.00;100669.44;105578;1257;75863;-59
2023/09/02 01:42:55;;;;;;;7.30;4.10;;;;;;;15.55;100.00;100669.32;105621;1257;82376;-58
2023/09/02 01:45:25;;;;;;;6.00;4.00;;;;;;;15.55;100.00;100670.55;105544;1256;72681;-59
2023/09/02 01:47:52;;;;;;;6.60;4.10;;;;;;;15.54;100.00;100669.01;105495;1254;69158;-59
2023/09/02 01:50:23;;;;;;;4.80;3.60;;;;;;;15.53;100.00;100669.23;105449;1257;69403;-58
2023/09/02 01:52:51;;;;;;;5.90;4.20;;;;;;;15.53;100.00;100665.72;105524;1254;74515;-59
2023/09/02 01:55:19;;;;;;;4.40;3.50;;;;;;;15.53;100.00;100667.32;105499;1256;83289;-59
2023/09/02 01:57:47;;;;;;;4.70;4.10;;;;;;;15.54;100.00;100668.30;105454;1254;73819;-59
2023/09/02 02:00:15;;;;;;;4.90;4.10;;;;;;;15.54;100.00;100667.61;105377;1260;69191;-59
2023/09/02 02:02:45;;;;;;;6.10;4.30;;;;;;;15.55;100.00;100670.73;105639;1255;69183;-59
2023/09/02 02:05:13;;;;;;;6.20;3.90;;;;;;;15.55;100.00;100673.19;105607;1254;75416;-59
2023/09/02 02:07:47;;;;;;;6.30;3.90;;;;;;;15.54;100.00;100673.20;105513;1257;83564;-59
2023/09/02 02:10:16;;;;;;;4.90;4.10;;;;;;;15.55;100.00;100675.64;105581;1252;72314;-59
2023/09/02 02:12:44;;;;;;;5.60;4.00;;;;;;;15.55;100.00;100679.49;105585;1254;69112;-59
2023/09/02 02:15:11;;;;;;;6.90;3.90;;;;;;;15.53;100.00;100679.08;105675;1257;69145;-59
2023/09/02 02:17:39;;;;;;;6.20;3.70;;;;;;;15.54;100.00;100679.77;105590;1252;75951;-59
2023/09/02 02:20:09;;;;;;;5.20;3.50;;;;;;;15.54;100.00;100679.59;105610;1257;83556;-59
2023/09/02 02:22:36;;;;;;;4.90;3.50;;;;;;;15.51;100.00;100684.33;105557;1256;73065;-59
2023/09/02 02:25:03;;;;;;;5.20;3.80;;;;;;;15.46;100.00;100690.91;105540;1256;69064;-59
2023/09/02 02:27:30;;;;;;;4.20;3.80;;;;;;;15.45;100.00;100691.20;105589;1255;69046;-59
2023/09/02 02:29:59;;;;;;;6.20;3.90;;;;;;;15.43;100.00;100691.44;105608;1254;75739;-59
2023/09/02 02:32:26;;;;;;;4.60;3.40;;;;;;;15.41;100.00;100693.29;105521;1257;83338;-59
2023/09/02 02:34:54;;;;;;;6.50;4.00;;;;;;;15.38;100.00;100695.55;105584;1257;73610;-59
2023/09/02 02:37:21;;;;;;;5.70;4.20;;;;;;;15.36;100.00;100695.85;105583;1256;69224;-59
2023/09/02 02:39:48;;;;;;;4.50;3.90;;;;;;;15.35;100.00;100696.94;105578;1254;69311;-59
2023/09/02 02:42:15;;;;;;;4.90;4.00;;;;;;;15.36;100.00;100697.08;105590;1257;73944;-59
2023/09/02 02:44:42;;;;;;;6.10;3.80;;;;;;;15.36;100.00;100697.23;105469;1256;83825;-59
2023/09/02 02:47:09;;;;;;;6.30;4.30;;;;;;;15.37;100.00;100697.37;105593;1255;72607;-59
2023/09/02 02:49:36;;;;;;;5.20;4.70;;;;;;;15.37;100.00;100700.70;105541;1252;69173;-59
2023/09/02 02:52:03;;;;;;;5.40;4.40;;;;;;;15.38;100.00;100704.35;105460;1256;69159;-59
2023/09/02 02:54:30;;;;;;;6.20;4.10;;;;;;;15.38;100.00;100701.34;105651;1254;74680;-59
2023/09/02 02:56:58;;;;;;;7.50;4.70;;;;;;;15.38;100.00;100703.66;105549;1257;83634;-59
2023/09/02 02:59:25;;;;;;;9.10;4.60;;;;;;;15.37;100.00;100704.08;105530;1254;73762;-59
2023/09/02 03:01:52;;;;;;;6.10;4.60;;;;;;;15.35;100.00;100700.65;105504;1256;69217;-59
2023/09/02 03:04:19;;;;;;;5.10;4.20;;;;;;;15.33;100.00;100699.88;105655;1256;69119;-59
2023/09/02 03:06:46;;;;;;;4.80;4.30;;;;;;;15.33;100.00;100701.48;105641;1255;76149;-59
2023/09/02 03:09:14;;;;;;;5.50;4.30;;;;;;;15.30;100.00;100702.13;105442;1257;82151;-59
2023/09/02 03:11:41;;;;;;;4.90;4.00;;;;;;;15.25;100.00;100706.65;105554;1257;74030;-59
2023/09/02 03:14:08;;;;;;;5.70;4.50;;;;;;;15.21;100.00;100705.79;105526;1254;69455;-59
2023/09/02 03:16:35;;;;;;;4.70;3.90;;;;;;;15.18;100.00;100712.08;105556;1257;69231;-59
2023/09/02 03:19:03;;;;;;;7.70;4.10;;;;;;;15.15;100.00;100709.80;105604;1256;74840;-59
2023/09/02 03:21:31;;;;;;;4.80;4.00;;;;;;;15.10;100.00;100714.62;105593;1255;82517;-59
2023/09/02 03:23:58;;;;;;;4.90;4.00;;;;;;;15.07;100.00;100717.77;105451;1254;72695;-59
2023/09/02 03:26:26;;;;;;;5.20;3.90;;;;;;;15.05;100.00;100720.51;105591;1255;69290;-59
2023/09/02 03:28:55;;;;;;;5.80;3.90;;;;;;;15.04;100.00;100726.34;105589;1254;69138;-58
2023/09/02 03:31:23;;;;;;;6.00;4.00;;;;;;;15.02;100.00;100724.53;105577;1254;74633;-58
2023/09/02 03:33:50;;;;;;;8.20;3.80;;;;;;;15.02;100.00;100726.30;105525;1254;82416;-58
2023/09/02 03:36:18;;;;;;;6.10;4.40;;;;;;;15.01;100.00;100728.06;105584;1256;73642;-58
2023/09/02 03:38:47;;;;;;;6.10;4.10;;;;;;;15.01;100.00;100728.08;105514;1257;69145;-58
2023/09/02 03:41:17;;;;;;;6.20;4.10;;;;;;;14.99;100.00;100730.99;105627;1254;69173;-58
2023/09/02 03:43:45;;;;;;;4.00;3.60;;;;;;;14.99;100.00;100729.61;105592;1255;74800;-58
2023/09/02 03:46:13;;;;;;;4.60;4.10;;;;;;;14.97;100.00;100733.77;105504;1255;83823;-58
2023/09/02 03:48:41;;;;;;;10.30;4.60;;;;;;;14.96;100.00;100735.73;105551;1256;72405;-58
2023/09/02 03:51:12;;;;;;;5.00;3.70;;;;;;;14.93;100.00;100739.90;105474;1254;69169;-58
2023/09/02 03:53:43;;;;;;;4.70;3.50;;;;;;;14.88;100.00;100746.70;105568;1254;69109;-58
2023/09/02 03:56:11;;;;;;;8.00;5.40;;;;;;;14.82;100.00;100749.77;105536;1254;74733;-58
2023/09/02 03:58:39;;;;;;;9.90;5.50;;;;;;;14.79;100.00;100753.48;105566;1254;83620;-58
2023/09/02 04:01:07;;;;;;;8.80;5.70;;;;;;;14.79;100.00;100754.55;105640;1253;72643;-58
2023/09/02 04:03:35;;;;;;;9.20;6.40;;;;;;;14.77;100.00;100751.25;105593;1256;69198;-59
2023/09/02 04:06:04;;;;;;;9.50;6.40;;;;;;;14.77;100.00;100753.59;105588;1255;69154;-58
2023/09/02 04:08:34;;;;;;;7.80;6.70;;;;;;;14.74;100.00;100759.49;105610;1254;75673;-57
2023/09/02 04:11:04;;;;;;;7.80;6.70;;;;;;;14.71;100.00;100760.54;105582;1254;83520;-58
2023/09/02 04:13:31;;;;;;;8.20;6.80;;;;;;;14.68;100.00;100762.44;105516;1257;73717;-59
2023/09/02 04:16:03;;;;;;;7.80;5.60;;;;;;;14.65;100.00;100763.28;105532;1254;69140;-57
2023/09/02 04:18:33;;;;;;;9.30;7.10;;;;;;;14.62;100.00;100762.36;105604;1256;69166;-58
2023/09/02 04:21:03;;;;;;;8.40;6.60;;;;;;;14.60;100.00;100763.88;105582;1254;75806;-58
2023/09/02 04:23:31;;;;;;;8.50;6.30;;;;;;;14.56;100.00;100770.92;105631;1254;82451;-58
2023/09/02 04:26:04;;;;;;;8.80;6.90;;;;;;;14.50;100.00;100768.71;105624;1254;73113;-58
2023/09/02 04:28:31;;;;;;;9.20;5.70;;;;;;;14.47;100.00;100771.68;105594;1256;69077;-58
2023/09/02 04:30:59;;;;;;;7.00;6.20;;;;;;;14.42;100.00;100776.81;105564;1252;69205;-58
2023/09/02 04:33:29;;;;;;;9.30;7.20;;;;;;;14.39;100.00;100778.20;105576;1254;74497;-58
2023/09/02 04:36:00;;;;;;;7.10;6.20;;;;;;;14.34;100.00;100781.23;105645;1257;83444;-57
2023/09/02 04:38:27;;;;;;;7.70;5.90;;;;;;;14.28;100.00;100786.43;105799;1256;73737;-58
2023/09/02 04:40:54;;;;;;;7.10;6.00;;;;;;;14.23;100.00;100791.24;105561;1254;69163;-57
2023/09/02 04:43:22;;;;;;;7.30;5.40;;;;;;;14.18;100.00;100790.60;105542;1254;69155;-55
2023/09/02 04:45:52;;;;;;;8.50;5.80;;;;;;;14.14;100.00;100789.91;105794;1256;75928;-56
2023/09/02 04:48:19;;;;;;;10.60;6.20;;;;;;;14.11;100.00;100793.21;105607;1254;83537;-56
2023/09/02 04:50:55;;;;;;;5.40;4.90;;;;;;;14.08;100.00;100797.40;105597;1253;72565;-51
2023/09/02 04:53:24;;;;;;;7.40;4.50;;;;;;;14.04;100.00;100802.27;105612;1256;69136;-55
2023/09/02 04:55:52;;;;;;;7.60;4.30;;;;;;;14.02;100.00;100803.98;105443;1257;69119;-57
2023/09/02 04:58:22;;;;;;;5.20;4.60;;;;;;;14.01;100.00;100807.36;105645;1257;75583;-58
2023/09/02 05:00:50;;;;;;;6.50;5.30;;;;;;;14.02;100.00;100808.19;105722;1254;82653;-58
2023/09/02 05:03:17;;;;;;;7.20;4.70;;;;;;;14.05;100.00;100815.80;105720;1254;73463;-58
2023/09/02 05:05:46;;;;;;;6.90;5.40;;;;;;;14.06;100.00;100818.70;105925;1254;69741;-57
2023/09/02 05:08:14;;;;;;;6.00;4.80;;;;;;;14.10;100.00;100820.50;105735;1256;69089;-57
2023/09/02 05:10:41;;;;;;;7.20;5.80;;;;;;;14.15;100.00;100819.55;105667;1256;74159;-58
2023/09/02 05:13:08;;;;;;;6.50;5.50;;;;;;;14.20;100.00;100822.50;105613;1256;83281;-58
2023/09/02 05:15:36;;;;;;;8.50;5.80;;;;;;;14.25;100.00;100828.61;105590;1255;73543;-58
2023/09/02 05:18:04;;;;;;;7.50;6.10;;;;;;;14.32;100.00;100830.05;105598;1256;69233;-58
2023/09/02 05:20:31;;;;;;;7.30;5.80;;;;;;;14.39;100.00;100830.58;105632;1256;69189;-57
2023/09/02 05:22:58;;;;;;;10.10;6.80;;;;;;;14.47;100.00;100829.49;105544;1254;75568;-57
2023/09/02 05:25:27;;;;;;;7.20;6.50;;;;;;;14.57;100.00;100827.52;105814;1256;83717;-58
2023/09/02 05:27:56;;;;;;;8.20;6.30;;;;;;;14.67;100.00;100825.80;105579;1254;72476;-57
2023/09/02 05:30:23;;;;;;;7.40;6.30;;;;;;;14.78;100.00;100826.52;105771;1256;69191;-57
2023/09/02 05:32:50;;;;;;;7.20;6.20;;;;;;;14.89;100.00;100826.69;105603;1254;69085;-57
2023/09/02 05:35:17;;;;;;;6.70;6.00;;;;;;;15.02;100.00;100825.91;105564;1254;74692;-56
2023/09/02 05:37:44;;;;;;;9.10;6.50;;;;;;;15.13;100.00;100825.17;105628;1256;82471;-54
2023/09/02 05:40:11;;;;;;;9.20;7.00;;;;;;;15.25;100.00;100827.95;105629;1254;73184;-57
2023/09/02 05:42:39;;;;;;;8.80;7.20;;;;;;;15.37;100.00;100832.58;105618;1252;69166;-56
2023/09/02 05:45:07;;;;;;;10.10;7.40;;;;;;;15.50;100.00;100835.98;105671;1256;69203;-57
2023/09/02 05:47:34;;;;;;;9.30;7.60;;;;;;;15.63;100.00;100834.48;105840;1256;76006;-58
2023/09/02 05:50:01;;;;;;;8.90;6.90;;;;;;;15.75;100.00;100835.79;105581;1256;83297;-57
2023/09/02 05:52:28;;;;;;;8.10;7.20;;;;;;;15.89;100.00;100839.48;105543;1253;72645;-57
2023/09/02 05:54:55;;;;;;;9.60;7.40;;;;;;;16.01;100.00;100835.87;105666;1254;69102;-57
2023/09/02 05:57:22;;;;;;;9.50;8.00;;;;;;;16.11;100.00;100839.03;105748;1256;69118;-56
2023/09/02 05:59:49;;;;;;;8.70;7.80;;;;;;;16.21;100.00;100840.26;105649;1254;75457;-57
2023/09/02 06:02:16;;;;;;;8.10;7.30;;;;;;;16.33;100.00;100840.88;105640;1254;83729;-58
2023/09/02 06:04:43;;;;;;;9.60;7.30;;;;;;;16.44;100.00;100843.11;105534;1256;72979;-56
2023/09/02 06:07:10;;;;;;;9.00;7.50;;;;;;;16.52;100.00;100846.86;105902;1256;69227;-57
2023/09/02 06:09:37;;;;;;;8.20;7.40;;;;;;;16.58;100.00;100846.40;105757;1255;69125;-57
2023/09/02 06:12:04;;;;;;;9.90;7.30;;;;;;;16.66;100.00;100847.02;105786;1254;75636;-58
2023/09/02 06:14:31;;;;;;;7.70;7.00;;;;;;;16.72;100.00;100848.94;105690;1256;83224;-57
2023/09/02 06:16:58;;;;;;;8.80;7.10;;;;;;;16.80;100.00;100849.27;105592;1257;73893;-58
2023/09/02 06:19:25;;;;;;;7.20;6.50;;;;;;;16.88;100.00;100849.85;105548;1254;69071;-58
2023/09/02 06:21:52;;;;;;;7.90;7.10;;;;;;;16.95;100.00;100854.23;105682;1256;69146;-58
2023/09/02 06:24:19;;;;;;;8.80;6.70;;;;;;;17.01;100.00;100853.39;105564;1252;74526;-57
2023/09/02 06:26:46;;;;;;;10.10;6.90;;;;;;;17.07;100.00;100855.13;105560;1252;82724;-57
2023/09/02 06:29:13;;;;;;;8.10;6.50;;;;;;;17.13;100.00;100857.08;105579;1256;73875;-58
2023/09/02 06:31:40;;;;;;;11.20;7.00;;;;;;;17.18;100.00;100863.33;105539;1254;69112;-58
2023/09/02 06:34:07;;;;;;;7.90;7.10;;;;;;;17.22;100.00;100865.09;105604;1256;69180;-57
2023/09/02 06:36:36;;;;;;;7.20;6.40;;;;;;;17.22;100.00;100868.45;105745;1254;75975;-57
2023/09/02 06:39:04;;;;;;;7.30;6.50;;;;;;;17.23;100.00;100868.02;105550;1256;83282;-58
2023/09/02 06:41:31;;;;;;;10.80;7.10;;;;;;;17.25;100.00;100869.66;105682;1256;73509;-58
2023/09/02 06:43:58;;;;;;;8.30;7.30;;;;;;;17.28;100.00;100871.59;105753;1256;69218;-58
2023/09/02 06:46:25;;;;;;;9.10;8.20;;;;;;;17.33;100.00;100875.03;105541;1256;69151;-57
2023/09/02 06:48:53;;;;;;;8.90;7.80;;;;;;;17.37;100.00;100881.13;105833;1253;75889;-57
2023/09/02 06:51:20;;;;;;;8.20;7.40;;;;;;;17.44;100.00;100883.59;105531;1254;82491;-57
2023/09/02 06:53:47;;;;;;;9.40;8.00;;;;;;;17.50;100.00;100880.60;105585;1253;72581;-57
2023/09/02 06:56:14;;;;;;;9.60;8.50;;;;;;;17.59;100.00;100883.05;105660;1256;69033;-57
2023/09/02 06:58:42;;;;;;;9.10;8.30;;;;;;;17.68;100.00;100881.52;105663;1257;69073;-53
2023/09/02 07:01:22;;;;;;;9.10;8.30;;;;;;;17.77;100.00;100884.66;105586;1253;73749;-57
2023/09/02 07:03:50;;;;;;;11.00;9.30;;;;;;;17.86;100.00;100882.92;105651;1256;83376;-58
2023/09/02 07:06:19;;;;;;;9.50;8.50;;;;;;;17.94;100.00;100884.58;105738;1255;73896;-56
2023/09/02 07:08:46;;;;;;;10.10;8.20;;;;;;;18.00;100.00;100885.45;105650;1256;69866;-58
2023/09/02 07:11:13;;;;;;;11.30;8.90;;;;;;;18.03;100.00;100890.16;105759;1254;70706;-57
2023/09/02 07:13:45;;;;;;;9.80;8.80;;;;;;;18.09;100.00;100894.64;105625;1254;74562;-59
2023/09/02 07:16:13;;;;;;;9.60;8.60;;;;;;;18.13;100.00;100896.86;105677;1256;84008;-60
2023/09/02 07:18:40;;;;;;;9.10;8.30;;;;;;;18.18;100.00;100900.41;105787;1255;73455;-59
2023/09/02 07:21:07;;;;;;;12.00;8.20;;;;;;;18.24;100.00;100905.06;105571;1257;69201;-57
2023/09/02 07:23:34;;;;;;;10.00;8.50;;;;;;;18.28;100.00;100904.42;105723;1253;69112;-59
2023/09/02 07:26:04;;;;;;;10.50;8.50;;;;;;;18.35;100.00;100909.86;105500;1256;74757;-59
2023/09/02 07:28:32;;;;;;;10.10;7.70;;;;;;;18.42;100.00;100911.39;105586;1256;83177;-58
2023/09/02 07:31:01;;;;;;;9.30;8.20;;;;;;;18.51;100.00;100914.16;105608;1256;73680;-58
2023/09/02 07:33:28;;;;;;;8.60;7.30;;;;;;;18.58;100.00;100915.66;105687;1254;69141;-57
2023/09/02 07:35:57;;;;;;;8.20;6.80;;;;;;;18.67;100.00;100919.71;105787;1253;69205;-58
2023/09/02 07:38:25;;;;;;;9.10;7.80;;;;;;;18.74;100.00;100922.48;105678;1254;75217;-58
2023/09/02 07:40:52;;;;;;;9.00;8.10;;;;;;;18.81;100.00;100922.09;105684;1256;83176;-57
2023/09/02 07:43:19;;;;;;;9.00;7.80;;;;;;;18.85;100.00;100922.18;105512;1254;72619;-58
2023/09/02 07:45:48;;;;;;;8.40;7.50;;;;;;;18.92;100.00;100926.31;105731;1254;69121;-58
2023/09/02 07:48:15;;;;;;;9.50;7.40;;;;;;;18.99;100.00;100930.65;105726;1252;69138;-57
2023/09/02 07:50:42;;;;;;;8.10;7.30;;;;;;;19.00;99.94;100932.33;105618;1256;75490;-57
2023/09/02 07:53:09;;;;;;;8.90;6.70;;;;;;;19.03;99.35;100931.25;105902;1256;83638;-57
2023/09/02 07:55:37;;;;;;;7.60;6.90;;;;;;;19.09;99.28;100935.34;105657;1255;73681;-59
2023/09/02 07:58:04;;;;;;;8.90;6.80;;;;;;;19.14;98.83;100937.66;105479;1251;245543;-58
2023/09/02 08:00:35;;;;;;;8.00;6.30;;;;;;;19.18;98.31;100938.98;105622;1256;69207;-58
2023/09/02 08:03:06;;;;;;;7.90;6.20;;;;;;;19.27;98.35;100940.55;105766;1254;75510;-58
2023/09/02 08:05:38;;;;;;;6.60;6.00;;;;;;;19.36;98.11;100945.95;105771;1254;82050;-59
2023/09/02 08:08:08;;;;;;;6.10;5.60;;;;;;;19.41;97.82;100944.80;105756;1252;72581;-57
2023/09/02 08:10:35;;;;;;;6.80;6.10;;;;;;;19.51;97.62;100945.21;105584;1253;69210;-58
2023/09/02 08:13:07;;;;;;;7.40;6.50;;;;;;;19.61;97.49;100950.39;105561;1256;69141;-58
2023/09/02 08:15:36;;;;;;;7.50;6.30;;;;;;;19.71;97.47;100954.15;105750;1254;75640;-58
2023/09/02 08:18:04;;;;;;;6.70;6.10;;;;;;;19.83;97.17;100956.53;105706;1253;82148;-58
2023/09/02 08:20:31;;;;;;;6.70;6.10;;;;;;;19.95;96.77;100959.33;105627;1254;73671;-58
2023/09/02 08:22:58;;;;;;;7.40;6.60;;;;;;;20.05;96.54;100960.90;105998;1255;69217;-57
2023/09/02 08:25:25;;;;;;;6.70;5.70;;;;;;;20.13;96.09;100962.67;105619;1256;69189;-58
2023/09/02 08:27:52;;;;;;;7.60;6.20;;;;;;;20.21;95.72;100965.48;105711;1254;74653;-59
2023/09/02 08:30:20;;;;;;;6.70;5.90;;;;;;;20.26;95.24;100968.17;105731;1256;83176;-59
2023/09/02 08:32:47;;;;;;;8.00;6.10;;;;;;;20.33;94.80;100970.73;105686;1254;72588;-55
2023/09/02 08:35:14;;;;;;;7.00;5.90;;;;;;;20.35;94.38;100977.16;105756;1256;69156;-59
2023/09/02 08:37:41;;;;;;;6.90;5.70;;;;;;;20.42;94.21;100978.64;105732;1255;69185;-59
2023/09/02 08:40:08;;;;;;;6.40;5.80;;;;;;;20.49;93.79;100978.27;105634;1254;75825;-58
2023/09/02 08:42:38;;;;;;;7.60;5.60;;;;;;;20.55;93.05;100980.60;105705;1253;83342;-59
2023/09/02 08:45:06;;;;;;;;;;;;;;;20.65;93.05;100984.31;105671;1256;73652;-59
2023/09/02 08:47:35;;;;;;;8.40;5.60;;;;;;;20.77;92.88;100985.64;105689;1254;69179;-59
2023/09/02 08:50:03;;;;;;;6.20;5.40;;;;;;;20.88;92.32;100986.26;105626;1257;69172;-57
2023/09/02 08:52:30;;;;;;;6.50;5.70;;;;;;;20.98;92.06;100991.46;105726;1254;74556;-58
2023/09/02 08:54:58;;;;;;;8.40;5.50;;;;;;;21.01;91.24;100990.68;105614;1254;83266;-58
2023/09/02 08:57:25;;;;;;;7.10;6.40;;;;;;;21.01;90.90;100995.48;105793;1252;73635;-58
2023/09/02 08:59:52;;;;;;;7.30;5.70;;;;;;;20.97;90.29;100993.80;105851;1254;69707;-58
2023/09/02 09:02:20;;;;;;;6.90;6.00;;;;;;;20.98;90.27;100993.23;105623;1254;69188;-58
2023/09/02 09:04:52;;;;;;;7.00;5.30;;;;;;;20.97;89.87;100991.13;105569;1254;74193;-58
2023/09/02 09:07:19;;;;;;;7.20;5.70;;;;;;;20.98;89.68;100997.64;105634;1254;83249;-59
2023/09/02 09:09:47;;;;;;;6.50;5.40;;;;;;;20.98;89.67;100999.11;105541;1254;73019;-59
2023/09/02 09:12:15;;;;;;;6.20;4.70;;;;;;;21.05;89.50;101002.17;105614;1254;69046;-58
2023/09/02 09:14:46;;;;;;;6.60;5.30;;;;;;;21.14;89.20;100996.33;105793;1254;69188;-59
2023/09/02 09:17:14;;;;;;;7.00;5.30;;;;;;;21.20;89.10;100994.48;105730;1256;75808;-59
2023/09/02 09:19:41;;;;;;;6.20;5.20;;;;;;;21.29;88.84;100994.31;105745;1254;83661;-58
2023/09/02 09:22:08;;;;;;;5.90;5.20;;;;;;;21.40;88.99;100996.08;105669;1256;73708;-57
2023/09/02 09:24:35;;;;;;;7.70;5.40;;;;;;;21.52;89.12;100998.92;105632;1253;69143;-57
2023/09/02 09:27:07;;;;;;;5.90;5.30;;;;;;;21.62;88.41;101000.70;105771;1255;69324;-58
2023/09/02 09:29:41;;;;;;;5.40;4.90;;;;;;;21.67;88.00;101002.84;105648;1254;75671;-57
2023/09/02 09:32:13;;;;;;;8.10;5.20;;;;;;;21.66;87.01;101007.33;105791;1256;83546;-58
2023/09/02 09:34:41;;;;;;;6.40;4.60;;;;;;;21.70;87.13;101005.60;105728;1255;74232;-57
2023/09/02 09:37:09;;;;;;;5.60;4.70;;;;;;;21.83;86.62;101003.93;105610;1256;69537;-57
2023/09/02 09:39:43;;;;;;;5.10;4.20;;;;;;;21.96;85.77;101008.98;105718;1254;69084;-58
2023/09/02 09:42:15;;;;;;;6.20;4.40;;;;;;;22.04;84.66;101010.14;105752;1254;75472;-57
2023/09/02 09:44:52;;;;;;;5.70;4.10;;;;;;;21.99;83.36;101013.92;105920;1254;82327;-57
2023/09/02 09:47:23;;;;;;;5.00;3.80;;;;;;;21.85;82.60;101014.05;105652;1252;73308;-54
2023/09/02 09:49:51;;;;;;;7.00;4.20;;;;;;;21.79;82.50;101025.97;105660;1252;69528;-55
2023/09/02 09:52:20;;;;;;;4.50;3.90;;;;;;;21.81;82.59;101023.10;105845;1255;69301;-55
2023/09/02 09:54:49;;;;;;;5.30;4.00;;;;;;;21.98;82.33;101021.64;105802;1252;75650;-54
2023/09/02 09:57:29;;;;;;;5.80;4.00;;;;;;;22.12;81.80;101025.41;105833;1253;83709;-57
2023/09/02 09:59:57;;;;;;;5.60;3.70;;;;;;;22.24;80.62;101025.73;105751;1254;73847;-57
2023/09/02 10:02:24;;;;;;;5.70;4.00;;;;;;;22.17;80.03;101025.77;105653;1254;69114;-56
2023/09/02 10:04:56;;;;;;;4.40;3.50;;;;;;;22.09;80.15;101023.37;105749;1255;69064;-56
2023/09/02 10:07:30;;;;;;;5.40;3.80;;;;;;;22.08;79.22;101025.92;105676;1255;75537;-56
2023/09/02 10:10:05;;;;;;;8.20;4.30;;;;;;;22.01;79.09;101026.73;105633;1254;82357;-57
2023/09/02 10:12:34;;;;;;;7.60;3.70;;;;;;;21.90;78.91;101034.04;105635;1253;71450;-56
2023/09/02 10:15:07;;;;;;;6.10;3.80;;;;;;;21.98;78.57;101032.17;105670;1254;69183;-55
2023/09/02 10:17:36;;;;;;;9.40;3.50;;;;;;;22.22;78.56;101030.77;105615;1254;69061;-54
2023/09/02 10:20:05;;;;;;;4.40;3.60;;;;;;;22.56;78.31;101034.21;105686;1254;75733;-56
2023/09/02 10:22:34;;;;;;;5.10;3.60;;;;;;;22.91;77.71;101036.79;105676;1254;83375;-56
2023/09/02 10:25:24;;;;;;;4.50;3.10;;;;;;;23.28;77.40;101040.14;105694;1253;73392;-57
2023/09/02 10:28:03;;;;;;;4.90;3.40;;;;;;;23.73;76.59;101037.23;105691;1254;69236;-56
2023/09/02 10:30:43;;;;;;;7.70;3.50;;;;;;;24.12;75.74;101037.94;105739;1254;69003;-57
2023/09/02 10:33:33;;;;;;;3.40;2.50;;;;;;;24.46;75.01;101040.55;105755;1254;75813;-57
2023/09/02 10:36:03;;;;;;;4.30;2.80;;;;;;;24.89;73.06;101039.96;105661;1254;82851;-57
2023/09/02 10:38:37;;;;;;;4.70;2.60;;;;;;;25.30;71.99;101038.29;105694;1254;72296;-57
2023/09/02 10:41:08;;;;;;;3.90;2.80;;;;;;;25.54;69.51;101041.55;105672;1254;69124;-56
2023/09/02 10:43:36;;;;;;;4.30;2.50;;;;;;;25.52;67.88;101043.35;105717;1254;69198;-58
2023/09/02 10:46:03;;;;;;;4.10;2.80;;;;;;;25.63;68.27;101046.10;105745;1254;75765;-57
2023/09/02 10:48:33;;;;;;;4.10;3.50;;;;;;;25.78;67.29;101043.04;105724;1255;83196;-58
2023/09/02 10:51:00;;;;;;;6.50;3.10;;;;;;;25.76;67.25;101042.73;105702;1252;72498;-58
2023/09/02 10:54:02;;;;;;;4.10;2.80;;;;;;;25.76;67.17;101048.27;105648;1254;69207;-57
2023/09/02 10:56:30;;;;;;;4.50;3.20;;;;;;;25.61;66.33;101047.83;105647;1255;69138;-57
2023/09/02 10:58:59;;;;;;;4.40;2.90;;;;;;;25.31;65.94;101049.27;105734;1254;75593;-60
2023/09/02 11:01:41;;;;;;;5.20;3.00;;;;;;;25.12;65.49;101044.10;105676;1254;84161;-58
2023/09/02 11:04:08;;;;;;;3.80;2.70;;;;;;;25.13;65.50;101041.77;105738;1255;73650;-58
2023/09/02 11:06:35;;;;;;;6.90;3.70;;;;;;;25.43;65.73;101043.54;105743;1256;69067;-58
2023/09/02 11:09:02;;;;;;;4.50;3.30;;;;;;;25.82;65.36;101045.83;105632;1256;69191;-59
2023/09/02 11:12:07;;;;;;;5.70;3.00;;;;;;;25.95;64.24;101047.19;105601;1254;75662;-58
2023/09/02 11:14:34;;;;;;;4.40;2.90;;;;;;;25.78;63.93;101045.05;105746;1256;83385;-59
2023/09/02 11:17:27;;;;;;;4.20;2.80;;;;;;;25.66;63.87;101049.15;105617;1252;73175;-58
2023/09/02 11:19:58;;;;;;;4.50;2.70;;;;;;;25.66;63.20;101053.29;105713;1252;69086;-57